createdAt,value
2019-05-07T05:20:34.048Z,7.30
2019-05-07T07:26:38.393Z,7.30
2019-05-07T07:49:16.254Z,13.00
2019-05-07T07:56:11.918Z,12.60
2019-05-07T08:03:32.718Z,11.40
2019-05-07T08:37:25.596Z,10.90
2019-05-07T08:49:36.622Z,10.60
2019-05-07T09:24:03.857Z,10.80
2019-05-07T09:45:05.372Z,12.00
2019-05-07T09:51:03.486Z,12.90
2019-05-07T10:00:47.646Z,12.90
2019-05-07T10:18:53.154Z,13.20
2019-05-07T10:25:11.908Z,14.60
2019-05-07T11:06:03.999Z,13.80
2019-05-07T12:29:03.555Z,11.60
2019-05-07T12:36:33.826Z,14.10
2019-05-07T12:41:18.163Z,14.10
2019-05-07T12:46:11.782Z,14.10
2019-05-07T12:51:34.374Z,14.10
2019-05-07T12:57:02.479Z,14.50
2019-05-07T13:02:34.685Z,15.00
2019-05-07T13:07:43.396Z,14.70
2019-05-07T13:12:59.181Z,15.00
2019-05-07T13:17:52.940Z,14.90
2019-05-07T13:22:45.679Z,15.00
2019-05-07T13:27:43.461Z,15.40
2019-05-07T13:32:34.905Z,15.30
2019-05-07T13:37:27.733Z,15.60
2019-05-07T13:42:22.395Z,15.70
2019-05-07T13:47:14.682Z,15.80
2019-05-07T13:52:07.797Z,16.20
2019-05-07T13:57:00.689Z,16.50
2019-05-07T14:01:53.325Z,16.60
2019-05-07T14:06:45.454Z,16.00
2019-05-07T14:11:37.323Z,15.30
2019-05-07T14:16:28.790Z,14.80
2019-05-07T14:21:34.464Z,14.20
2019-05-07T14:26:43.568Z,13.60
2019-05-07T14:32:19.056Z,13.40
2019-05-07T14:37:16.798Z,13.00
2019-05-07T14:42:23.022Z,12.80
2019-05-07T14:47:53.452Z,12.80
2019-05-07T14:52:56.211Z,12.70
2019-05-07T14:58:24.980Z,12.70
2019-05-07T15:03:42.760Z,12.60
2019-05-07T15:08:53.156Z,12.70
2019-05-07T15:14:25.604Z,12.80
2019-05-07T15:19:16.859Z,12.90
2019-05-07T15:24:21.939Z,13.00
2019-05-07T15:29:15.319Z,13.00
2019-05-07T15:34:18.348Z,13.00
2019-05-07T15:39:19.588Z,13.10
2019-05-07T15:44:16.667Z,13.20
2019-05-07T15:49:13.398Z,13.50
2019-05-07T15:54:24.636Z,13.80
2019-05-07T15:59:26.126Z,13.80
2019-05-07T16:05:05.647Z,13.70
2019-05-07T16:09:56.421Z,13.90
2019-05-07T16:14:57.369Z,13.90
2019-05-07T16:19:53.023Z,13.90
2019-05-07T16:24:57.029Z,13.90
2019-05-07T16:29:47.353Z,13.80
2019-05-07T16:34:54.624Z,13.70
2019-05-07T16:40:13.661Z,13.60
2019-05-07T16:45:05.155Z,13.40
2019-05-07T16:50:41.940Z,13.20
2019-05-07T16:55:36.530Z,13.10
2019-05-07T17:00:33.357Z,13.30
2019-05-07T17:05:28.169Z,13.30
2019-05-07T17:10:37.870Z,13.20
2019-05-07T17:15:29.513Z,13.10
2019-05-07T17:20:23.427Z,12.90
2019-05-07T17:25:18.302Z,12.70
2019-05-07T17:36:04.089Z,12.60
2019-05-07T17:41:18.239Z,12.50
2019-05-07T17:46:38.625Z,12.40
2019-05-07T17:51:55.139Z,12.30
2019-05-07T17:56:49.248Z,12.30
2019-05-07T18:01:56.661Z,12.30
2019-05-07T18:07:03.425Z,12.30
2019-05-07T18:12:07.530Z,12.20
2019-05-07T18:17:05.657Z,12.20
2019-05-07T18:22:13.918Z,12.10
2019-05-07T18:27:13.562Z,12.00
2019-05-07T18:32:13.716Z,11.90
2019-05-07T18:37:24.265Z,11.80
2019-05-07T18:42:57.061Z,11.80
2019-05-07T18:47:49.136Z,11.70
2019-05-07T18:52:49.139Z,11.70
2019-05-07T18:57:48.065Z,11.50
2019-05-07T19:10:02.617Z,11.40
2019-05-07T19:15:56.162Z,11.10
2019-05-07T19:32:56.188Z,10.60
2019-05-07T19:38:20.569Z,10.30
2019-05-07T19:44:47.260Z,10.10
2019-05-07T19:49:57.179Z,9.90
2019-05-07T20:01:01.881Z,9.70
2019-05-07T20:07:06.704Z,9.50
2019-05-07T20:12:17.240Z,9.40
2019-05-07T20:17:34.636Z,9.40
2019-05-07T20:28:22.240Z,9.30
2019-05-07T20:33:41.892Z,9.30
2019-05-07T20:38:59.290Z,9.20
2019-05-07T20:44:17.193Z,9.20
2019-05-07T20:49:27.963Z,9.00
2019-05-07T20:54:53.631Z,8.90
2019-05-07T21:00:23.820Z,8.90
2019-05-07T21:27:02.952Z,8.90
2019-05-07T22:11:35.729Z,8.70
2019-05-07T22:55:43.401Z,8.50
2019-05-07T23:07:09.678Z,8.70
2019-05-07T23:23:42.643Z,8.70
2019-05-07T23:28:59.526Z,8.80
2019-05-07T23:34:53.698Z,8.80
2019-05-07T23:40:57.863Z,8.80
2019-05-07T23:46:28.087Z,8.80
2019-05-07T23:52:38.887Z,8.80
